sensor_id;sensor_type;location;lat;lon;timestamp;P1;durP1;ratioP1;P2;durP2;ratioP2
20150;SDS011;10236;49.638;6.830;2022-08-19T00:02:04;14.73;;;13.23;;
20150;SDS011;10236;49.638;6.830;2022-08-19T00:04:32;14.75;;;13.25;;
20150;SDS011;10236;49.638;6.830;2022-08-19T00:06:59;13.90;;;12.50;;
20150;SDS011;10236;49.638;6.830;2022-08-19T00:09:26;13.80;;;12.50;;
20150;SDS011;10236;49.638;6.830;2022-08-19T00:11:53;14.27;;;12.97;;
20150;SDS011;10236;49.638;6.830;2022-08-19T00:14:20;15.35;;;13.93;;
20150;SDS011;10236;49.638;6.830;2022-08-19T00:16:47;14.32;;;13.00;;
20150;SDS011;10236;49.638;6.830;2022-08-19T00:19:14;16.27;;;14.67;;
20150;SDS011;10236;49.638;6.830;2022-08-19T00:21:40;15.00;;;13.55;;
20150;SDS011;10236;49.638;6.830;2022-08-19T00:24:07;15.87;;;14.07;;
20150;SDS011;10236;49.638;6.830;2022-08-19T00:26:34;15.90;;;14.32;;
20150;SDS011;10236;49.638;6.830;2022-08-19T00:29:00;15.80;;;14.25;;
20150;SDS011;10236;49.638;6.830;2022-08-19T00:31:26;15.05;;;13.50;;
20150;SDS011;10236;49.638;6.830;2022-08-19T00:33:53;15.27;;;13.80;;
20150;SDS011;10236;49.638;6.830;2022-08-19T00:36:19;15.77;;;13.37;;
20150;SDS011;10236;49.638;6.830;2022-08-19T00:38:45;15.90;;;14.13;;
20150;SDS011;10236;49.638;6.830;2022-08-19T00:41:13;17.93;;;16.23;;
20150;SDS011;10236;49.638;6.830;2022-08-19T00:43:39;16.93;;;15.27;;
20150;SDS011;10236;49.638;6.830;2022-08-19T00:46:06;17.87;;;16.03;;
20150;SDS011;10236;49.638;6.830;2022-08-19T00:48:32;16.80;;;15.20;;
20150;SDS011;10236;49.638;6.830;2022-08-19T00:50:59;16.77;;;15.20;;
20150;SDS011;10236;49.638;6.830;2022-08-19T00:53:27;16.67;;;15.07;;
20150;SDS011;10236;49.638;6.830;2022-08-19T00:55:55;15.60;;;14.13;;
20150;SDS011;10236;49.638;6.830;2022-08-19T00:58:23;15.27;;;13.83;;
20150;SDS011;10236;49.638;6.830;2022-08-19T01:00:50;15.37;;;13.77;;
20150;SDS011;10236;49.638;6.830;2022-08-19T01:03:17;15.43;;;13.90;;
20150;SDS011;10236;49.638;6.830;2022-08-19T01:05:44;15.47;;;14.07;;
20150;SDS011;10236;49.638;6.830;2022-08-19T01:08:11;15.67;;;14.17;;
20150;SDS011;10236;49.638;6.830;2022-08-19T01:10:40;15.73;;;14.23;;
20150;SDS011;10236;49.638;6.830;2022-08-19T01:13:07;17.13;;;15.47;;
20150;SDS011;10236;49.638;6.830;2022-08-19T01:15:35;17.07;;;15.37;;
20150;SDS011;10236;49.638;6.830;2022-08-19T01:18:05;17.00;;;15.20;;
20150;SDS011;10236;49.638;6.830;2022-08-19T01:20:31;17.23;;;14.53;;
20150;SDS011;10236;49.638;6.830;2022-08-19T01:22:59;16.20;;;14.67;;
20150;SDS011;10236;49.638;6.830;2022-08-19T01:25:33;16.23;;;14.63;;
20150;SDS011;10236;49.638;6.830;2022-08-19T01:28:00;15.63;;;14.13;;
20150;SDS011;10236;49.638;6.830;2022-08-19T01:30:28;12.80;;;11.47;;
20150;SDS011;10236;49.638;6.830;2022-08-19T01:32:55;17.30;;;14.23;;
20150;SDS011;10236;49.638;6.830;2022-08-19T01:35:22;17.17;;;15.37;;
20150;SDS011;10236;49.638;6.830;2022-08-19T01:37:50;16.13;;;14.63;;
20150;SDS011;10236;49.638;6.830;2022-08-19T01:40:17;18.20;;;16.30;;
20150;SDS011;10236;49.638;6.830;2022-08-19T01:42:45;16.63;;;15.00;;
20150;SDS011;10236;49.638;6.830;2022-08-19T01:45:12;16.10;;;14.47;;
20150;SDS011;10236;49.638;6.830;2022-08-19T01:47:38;14.77;;;13.37;;
20150;SDS011;10236;49.638;6.830;2022-08-19T01:50:04;14.93;;;13.53;;
20150;SDS011;10236;49.638;6.830;2022-08-19T01:52:31;14.83;;;13.43;;
20150;SDS011;10236;49.638;6.830;2022-08-19T01:54:57;15.43;;;13.83;;
20150;SDS011;10236;49.638;6.830;2022-08-19T01:57:23;15.60;;;14.13;;
20150;SDS011;10236;49.638;6.830;2022-08-19T01:59:49;16.17;;;14.53;;
20150;SDS011;10236;49.638;6.830;2022-08-19T02:02:15;15.83;;;14.13;;
20150;SDS011;10236;49.638;6.830;2022-08-19T02:04:42;16.13;;;14.63;;
20150;SDS011;10236;49.638;6.830;2022-08-19T02:07:08;17.83;;;15.30;;
20150;SDS011;10236;49.638;6.830;2022-08-19T02:09:34;15.73;;;14.27;;
20150;SDS011;10236;49.638;6.830;2022-08-19T02:12:00;16.37;;;14.07;;
20150;SDS011;10236;49.638;6.830;2022-08-19T02:14:26;15.83;;;14.27;;
20150;SDS011;10236;49.638;6.830;2022-08-19T02:16:52;16.47;;;14.70;;
20150;SDS011;10236;49.638;6.830;2022-08-19T02:19:18;17.80;;;16.03;;
20150;SDS011;10236;49.638;6.830;2022-08-19T02:21:44;16.63;;;13.53;;
20150;SDS011;10236;49.638;6.830;2022-08-19T02:24:10;15.87;;;14.37;;
20150;SDS011;10236;49.638;6.830;2022-08-19T02:26:37;16.63;;;14.97;;
20150;SDS011;10236;49.638;6.830;2022-08-19T02:29:03;16.30;;;14.70;;
20150;SDS011;10236;49.638;6.830;2022-08-19T02:31:29;15.70;;;14.10;;
20150;SDS011;10236;49.638;6.830;2022-08-19T02:33:56;15.40;;;13.90;;
20150;SDS011;10236;49.638;6.830;2022-08-19T02:36:22;15.63;;;14.07;;
20150;SDS011;10236;49.638;6.830;2022-08-19T02:38:48;16.00;;;14.40;;
20150;SDS011;10236;49.638;6.830;2022-08-19T02:41:19;15.70;;;14.10;;
20150;SDS011;10236;49.638;6.830;2022-08-19T02:43:46;16.00;;;14.40;;
20150;SDS011;10236;49.638;6.830;2022-08-19T02:46:17;15.43;;;13.93;;
20150;SDS011;10236;49.638;6.830;2022-08-19T02:48:46;16.30;;;14.70;;
20150;SDS011;10236;49.638;6.830;2022-08-19T02:51:16;16.77;;;14.37;;
20150;SDS011;10236;49.638;6.830;2022-08-19T02:53:42;18.53;;;16.10;;
20150;SDS011;10236;49.638;6.830;2022-08-19T02:56:09;15.23;;;13.83;;
20150;SDS011;10236;49.638;6.830;2022-08-19T02:58:35;16.10;;;14.50;;
20150;SDS011;10236;49.638;6.830;2022-08-19T03:01:01;15.73;;;14.23;;
20150;SDS011;10236;49.638;6.830;2022-08-19T03:03:27;16.67;;;14.80;;
20150;SDS011;10236;49.638;6.830;2022-08-19T03:06:07;15.27;;;13.77;;
20150;SDS011;10236;49.638;6.830;2022-08-19T03:08:33;15.10;;;13.60;;
20150;SDS011;10236;49.638;6.830;2022-08-19T03:10:59;16.30;;;14.80;;
20150;SDS011;10236;49.638;6.830;2022-08-19T03:13:25;15.47;;;14.00;;
20150;SDS011;10236;49.638;6.830;2022-08-19T03:15:53;15.97;;;14.37;;
20150;SDS011;10236;49.638;6.830;2022-08-19T03:18:19;15.97;;;14.47;;
20150;SDS011;10236;49.638;6.830;2022-08-19T03:20:46;15.90;;;14.30;;
20150;SDS011;10236;49.638;6.830;2022-08-19T03:23:13;16.50;;;14.70;;
20150;SDS011;10236;49.638;6.830;2022-08-19T03:25:40;14.93;;;13.43;;
20150;SDS011;10236;49.638;6.830;2022-08-19T03:28:08;16.50;;;14.77;;
20150;SDS011;10236;49.638;6.830;2022-08-19T03:30:34;17.03;;;14.27;;
20150;SDS011;10236;49.638;6.830;2022-08-19T03:33:00;15.83;;;14.37;;
20150;SDS011;10236;49.638;6.830;2022-08-19T03:35:27;14.83;;;13.37;;
20150;SDS011;10236;49.638;6.830;2022-08-19T03:37:53;15.77;;;13.97;;
20150;SDS011;10236;49.638;6.830;2022-08-19T03:40:19;16.47;;;13.33;;
20150;SDS011;10236;49.638;6.830;2022-08-19T03:42:45;15.53;;;13.93;;
20150;SDS011;10236;49.638;6.830;2022-08-19T03:45:11;15.70;;;14.20;;
20150;SDS011;10236;49.638;6.830;2022-08-19T03:47:37;16.53;;;14.87;;
20150;SDS011;10236;49.638;6.830;2022-08-19T03:50:03;15.60;;;13.87;;
20150;SDS011;10236;49.638;6.830;2022-08-19T03:52:29;17.47;;;15.23;;
20150;SDS011;10236;49.638;6.830;2022-08-19T03:54:55;18.77;;;15.90;;
20150;SDS011;10236;49.638;6.830;2022-08-19T03:57:21;18.00;;;15.00;;
20150;SDS011;10236;49.638;6.830;2022-08-19T03:59:47;18.50;;;16.80;;
20150;SDS011;10236;49.638;6.830;2022-08-19T04:02:13;18.30;;;16.50;;
20150;SDS011;10236;49.638;6.830;2022-08-19T04:04:40;18.37;;;16.57;;
20150;SDS011;10236;49.638;6.830;2022-08-19T04:07:08;17.97;;;15.33;;
20150;SDS011;10236;49.638;6.830;2022-08-19T04:09:34;18.67;;;16.90;;
20150;SDS011;10236;49.638;6.830;2022-08-19T04:12:04;17.17;;;15.13;;
20150;SDS011;10236;49.638;6.830;2022-08-19T04:14:30;18.00;;;16.20;;
20150;SDS011;10236;49.638;6.830;2022-08-19T04:16:57;16.33;;;14.70;;
20150;SDS011;10236;49.638;6.830;2022-08-19T04:19:24;16.60;;;14.87;;
20150;SDS011;10236;49.638;6.830;2022-08-19T04:21:50;18.67;;;13.93;;
20150;SDS011;10236;49.638;6.830;2022-08-19T04:24:17;15.37;;;13.80;;
20150;SDS011;10236;49.638;6.830;2022-08-19T04:26:43;15.77;;;14.13;;
20150;SDS011;10236;49.638;6.830;2022-08-19T04:29:11;17.27;;;15.57;;
20150;SDS011;10236;49.638;6.830;2022-08-19T04:31:38;16.50;;;14.93;;
20150;SDS011;10236;49.638;6.830;2022-08-19T04:34:05;17.70;;;16.00;;
20150;SDS011;10236;49.638;6.830;2022-08-19T04:36:33;17.53;;;15.73;;
20150;SDS011;10236;49.638;6.830;2022-08-19T04:39:03;16.40;;;14.90;;
20150;SDS011;10236;49.638;6.830;2022-08-19T04:41:29;17.53;;;15.77;;
20150;SDS011;10236;49.638;6.830;2022-08-19T04:44:13;18.87;;;16.07;;
20150;SDS011;10236;49.638;6.830;2022-08-19T04:46:43;18.03;;;16.23;;
20150;SDS011;10236;49.638;6.830;2022-08-19T04:49:09;17.00;;;15.30;;
20150;SDS011;10236;49.638;6.830;2022-08-19T04:51:35;18.97;;;17.07;;
20150;SDS011;10236;49.638;6.830;2022-08-19T04:54:02;18.67;;;16.80;;
20150;SDS011;10236;49.638;6.830;2022-08-19T04:56:28;19.80;;;17.83;;
20150;SDS011;10236;49.638;6.830;2022-08-19T04:58:55;17.93;;;16.03;;
20150;SDS011;10236;49.638;6.830;2022-08-19T05:01:22;17.33;;;15.63;;
20150;SDS011;10236;49.638;6.830;2022-08-19T05:03:49;17.07;;;15.37;;
20150;SDS011;10236;49.638;6.830;2022-08-19T05:06:15;15.77;;;14.27;;
20150;SDS011;10236;49.638;6.830;2022-08-19T05:08:42;17.03;;;15.20;;
20150;SDS011;10236;49.638;6.830;2022-08-19T05:11:14;15.83;;;14.37;;
20150;SDS011;10236;49.638;6.830;2022-08-19T05:13:41;16.20;;;14.57;;
20150;SDS011;10236;49.638;6.830;2022-08-19T05:16:08;15.93;;;14.30;;
20150;SDS011;10236;49.638;6.830;2022-08-19T05:18:34;18.17;;;16.37;;
20150;SDS011;10236;49.638;6.830;2022-08-19T05:21:19;17.27;;;15.57;;
20150;SDS011;10236;49.638;6.830;2022-08-19T05:24:04;17.67;;;15.87;;
20150;SDS011;10236;49.638;6.830;2022-08-19T05:26:37;16.90;;;15.10;;
20150;SDS011;10236;49.638;6.830;2022-08-19T05:29:04;17.83;;;16.13;;
20150;SDS011;10236;49.638;6.830;2022-08-19T05:31:30;19.57;;;17.37;;
20150;SDS011;10236;49.638;6.830;2022-08-19T05:33:56;19.30;;;17.27;;
20150;SDS011;10236;49.638;6.830;2022-08-19T05:36:24;21.50;;;18.87;;
20150;SDS011;10236;49.638;6.830;2022-08-19T05:38:50;21.37;;;19.17;;
20150;SDS011;10236;49.638;6.830;2022-08-19T05:41:17;20.33;;;18.23;;
20150;SDS011;10236;49.638;6.830;2022-08-19T05:43:43;19.67;;;17.67;;
20150;SDS011;10236;49.638;6.830;2022-08-19T05:46:15;19.57;;;17.73;;
20150;SDS011;10236;49.638;6.830;2022-08-19T05:48:41;20.93;;;18.47;;
20150;SDS011;10236;49.638;6.830;2022-08-19T05:51:07;22.10;;;19.33;;
20150;SDS011;10236;49.638;6.830;2022-08-19T05:53:33;21.80;;;19.53;;
20150;SDS011;10236;49.638;6.830;2022-08-19T05:56:03;20.80;;;18.80;;
20150;SDS011;10236;49.638;6.830;2022-08-19T05:58:29;22.77;;;18.60;;
20150;SDS011;10236;49.638;6.830;2022-08-19T06:00:56;19.97;;;18.03;;
20150;SDS011;10236;49.638;6.830;2022-08-19T06:03:22;21.03;;;18.60;;
20150;SDS011;10236;49.638;6.830;2022-08-19T06:05:48;20.77;;;18.70;;
20150;SDS011;10236;49.638;6.830;2022-08-19T06:08:14;20.20;;;18.17;;
20150;SDS011;10236;49.638;6.830;2022-08-19T06:10:43;20.37;;;18.00;;
20150;SDS011;10236;49.638;6.830;2022-08-19T06:13:09;20.47;;;18.37;;
20150;SDS011;10236;49.638;6.830;2022-08-19T06:15:35;22.90;;;19.57;;
20150;SDS011;10236;49.638;6.830;2022-08-19T06:57:33;22.15;;;18.08;;
20150;SDS011;10236;49.638;6.830;2022-08-19T07:00:02;21.90;;;19.67;;
20150;SDS011;10236;49.638;6.830;2022-08-19T07:02:28;28.52;;;23.45;;
20150;SDS011;10236;49.638;6.830;2022-08-19T07:04:54;26.25;;;23.30;;
20150;SDS011;10236;49.638;6.830;2022-08-19T07:07:23;27.30;;;24.45;;
20150;SDS011;10236;49.638;6.830;2022-08-19T07:09:50;26.55;;;23.85;;
20150;SDS011;10236;49.638;6.830;2022-08-19T07:12:17;25.77;;;23.13;;
20150;SDS011;10236;49.638;6.830;2022-08-19T07:14:43;28.02;;;24.25;;
20150;SDS011;10236;49.638;6.830;2022-08-19T07:17:11;28.25;;;25.25;;
20150;SDS011;10236;49.638;6.830;2022-08-19T07:19:37;27.80;;;24.95;;
20150;SDS011;10236;49.638;6.830;2022-08-19T07:22:05;26.85;;;24.15;;
20150;SDS011;10236;49.638;6.830;2022-08-19T07:24:32;24.25;;;21.83;;
20150;SDS011;10236;49.638;6.830;2022-08-19T07:26:59;25.90;;;23.08;;
20150;SDS011;10236;49.638;6.830;2022-08-19T07:29:27;28.75;;;25.70;;
20150;SDS011;10236;49.638;6.830;2022-08-19T07:31:54;27.92;;;25.13;;
20150;SDS011;10236;49.638;6.830;2022-08-19T07:34:21;25.88;;;23.23;;
20150;SDS011;10236;49.638;6.830;2022-08-19T07:36:47;27.23;;;24.33;;
20150;SDS011;10236;49.638;6.830;2022-08-19T07:39:15;27.23;;;24.42;;
20150;SDS011;10236;49.638;6.830;2022-08-19T07:41:42;26.13;;;23.35;;
20150;SDS011;10236;49.638;6.830;2022-08-19T07:44:08;26.27;;;23.60;;
20150;SDS011;10236;49.638;6.830;2022-08-19T07:46:36;26.40;;;23.67;;
20150;SDS011;10236;49.638;6.830;2022-08-19T07:49:03;25.50;;;22.98;;
20150;SDS011;10236;49.638;6.830;2022-08-19T07:51:30;26.70;;;24.02;;
20150;SDS011;10236;49.638;6.830;2022-08-19T07:53:56;29.73;;;25.88;;
20150;SDS011;10236;49.638;6.830;2022-08-19T07:56:22;26.13;;;23.50;;
20150;SDS011;10236;49.638;6.830;2022-08-19T07:58:49;24.85;;;22.30;;
20150;SDS011;10236;49.638;6.830;2022-08-19T08:01:17;25.00;;;22.55;;
20150;SDS011;10236;49.638;6.830;2022-08-19T08:03:43;25.13;;;22.48;;
20150;SDS011;10236;49.638;6.830;2022-08-19T08:06:28;26.17;;;21.92;;
20150;SDS011;10236;49.638;6.830;2022-08-19T08:09:13;22.48;;;20.17;;
20150;SDS011;10236;49.638;6.830;2022-08-19T08:11:56;21.02;;;18.75;;
20150;SDS011;10236;49.638;6.830;2022-08-19T08:14:27;20.38;;;18.33;;
20150;SDS011;10236;49.638;6.830;2022-08-19T08:16:53;19.95;;;17.95;;
20150;SDS011;10236;49.638;6.830;2022-08-19T08:19:24;19.90;;;17.98;;
20150;SDS011;10236;49.638;6.830;2022-08-19T08:21:57;18.60;;;16.67;;
20150;SDS011;10236;49.638;6.830;2022-08-19T08:24:26;18.00;;;16.10;;
20150;SDS011;10236;49.638;6.830;2022-08-19T08:26:52;17.73;;;15.93;;
20150;SDS011;10236;49.638;6.830;2022-08-19T08:29:18;19.25;;;17.40;;
20150;SDS011;10236;49.638;6.830;2022-08-19T08:31:45;17.98;;;15.57;;
20150;SDS011;10236;49.638;6.830;2022-08-19T08:34:13;15.60;;;14.10;;
20150;SDS011;10236;49.638;6.830;2022-08-19T08:36:40;15.25;;;13.65;;
20150;SDS011;10236;49.638;6.830;2022-08-19T08:39:07;14.00;;;12.73;;
20150;SDS011;10236;49.638;6.830;2022-08-19T08:44:00;14.90;;;13.48;;
20150;SDS011;10236;49.638;6.830;2022-08-19T08:46:36;15.25;;;13.48;;
20150;SDS011;10236;49.638;6.830;2022-08-19T08:51:47;14.85;;;12.50;;
20150;SDS011;10236;49.638;6.830;2022-08-19T10:02:22;14.18;;;12.88;;
20150;SDS011;10236;49.638;6.830;2022-08-19T10:04:48;16.83;;;15.07;;
20150;SDS011;10236;49.638;6.830;2022-08-19T10:07:32;18.13;;;16.33;;
20150;SDS011;10236;49.638;6.830;2022-08-19T10:09:58;19.10;;;17.25;;
20150;SDS011;10236;49.638;6.830;2022-08-19T10:12:24;17.30;;;15.60;;
20150;SDS011;10236;49.638;6.830;2022-08-19T10:14:50;17.27;;;14.15;;
20150;SDS011;10236;49.638;6.830;2022-08-19T10:17:18;14.40;;;12.93;;
20150;SDS011;10236;49.638;6.830;2022-08-19T10:19:44;11.45;;;10.25;;
20150;SDS011;10236;49.638;6.830;2022-08-19T10:22:10;14.43;;;11.80;;
20150;SDS011;10236;49.638;6.830;2022-08-19T10:24:38;13.57;;;12.18;;
20150;SDS011;10236;49.638;6.830;2022-08-19T10:27:04;13.20;;;11.90;;
20150;SDS011;10236;49.638;6.830;2022-08-19T10:29:31;13.13;;;11.80;;
20150;SDS011;10236;49.638;6.830;2022-08-19T10:32:00;14.02;;;12.77;;
20150;SDS011;10236;49.638;6.830;2022-08-19T10:34:26;14.38;;;11.38;;
20150;SDS011;10236;49.638;6.830;2022-08-19T10:36:52;11.43;;;9.52;;
20150;SDS011;10236;49.638;6.830;2022-08-19T10:39:18;10.27;;;8.68;;
20150;SDS011;10236;49.638;6.830;2022-08-19T10:41:44;11.65;;;10.60;;
20150;SDS011;10236;49.638;6.830;2022-08-19T10:44:11;12.30;;;11.23;;
20150;SDS011;10236;49.638;6.830;2022-08-19T10:46:39;10.18;;;9.18;;
20150;SDS011;10236;49.638;6.830;2022-08-19T10:49:06;9.60;;;8.75;;
20150;SDS011;10236;49.638;6.830;2022-08-19T10:51:33;9.85;;;8.38;;
20150;SDS011;10236;49.638;6.830;2022-08-19T10:54:17;7.88;;;7.18;;
20150;SDS011;10236;49.638;6.830;2022-08-19T10:56:43;10.05;;;7.32;;
20150;SDS011;10236;49.638;6.830;2022-08-19T11:01:45;7.13;;;6.47;;
20150;SDS011;10236;49.638;6.830;2022-08-19T11:04:11;9.52;;;8.63;;
20150;SDS011;10236;49.638;6.830;2022-08-19T11:06:39;8.23;;;7.53;;
20150;SDS011;10236;49.638;6.830;2022-08-19T11:09:06;8.15;;;7.35;;
20150;SDS011;10236;49.638;6.830;2022-08-19T11:11:33;9.98;;;8.98;;
20150;SDS011;10236;49.638;6.830;2022-08-19T11:14:05;9.57;;;8.63;;
20150;SDS011;10236;49.638;6.830;2022-08-19T11:16:31;11.32;;;9.63;;
20150;SDS011;10236;49.638;6.830;2022-08-19T11:18:58;9.65;;;8.75;;
20150;SDS011;10236;49.638;6.830;2022-08-19T11:21:29;9.52;;;8.55;;
20150;SDS011;10236;49.638;6.830;2022-08-19T11:24:00;10.65;;;8.98;;
20150;SDS011;10236;49.638;6.830;2022-08-19T11:26:27;10.68;;;8.90;;
20150;SDS011;10236;49.638;6.830;2022-08-19T11:28:54;11.10;;;10.10;;
20150;SDS011;10236;49.638;6.830;2022-08-19T11:31:22;11.30;;;10.15;;
20150;SDS011;10236;49.638;6.830;2022-08-19T11:33:48;15.25;;;13.55;;
20150;SDS011;10236;49.638;6.830;2022-08-19T11:36:19;14.82;;;13.43;;
20150;SDS011;10236;49.638;6.830;2022-08-19T11:38:46;13.63;;;12.38;;
20150;SDS011;10236;49.638;6.830;2022-08-19T11:41:13;11.40;;;10.30;;
20150;SDS011;10236;49.638;6.830;2022-08-19T11:43:39;10.88;;;9.75;;
20150;SDS011;10236;49.638;6.830;2022-08-19T11:46:06;11.80;;;10.45;;
20150;SDS011;10236;49.638;6.830;2022-08-19T11:48:33;12.15;;;11.15;;
20150;SDS011;10236;49.638;6.830;2022-08-19T11:51:02;14.00;;;12.70;;
20150;SDS011;10236;49.638;6.830;2022-08-19T11:53:31;11.98;;;10.88;;
20150;SDS011;10236;49.638;6.830;2022-08-19T11:55:57;11.13;;;10.23;;
20150;SDS011;10236;49.638;6.830;2022-08-19T11:58:22;13.13;;;10.65;;
20150;SDS011;10236;49.638;6.830;2022-08-19T12:00:49;10.40;;;9.50;;
20150;SDS011;10236;49.638;6.830;2022-08-19T12:03:15;10.30;;;8.70;;
20150;SDS011;10236;49.638;6.830;2022-08-19T12:05:42;8.48;;;7.68;;
20150;SDS011;10236;49.638;6.830;2022-08-19T12:08:08;11.65;;;8.23;;
20150;SDS011;10236;49.638;6.830;2022-08-19T12:10:35;8.80;;;8.10;;
20150;SDS011;10236;49.638;6.830;2022-08-19T12:13:01;9.70;;;8.82;;
20150;SDS011;10236;49.638;6.830;2022-08-19T12:15:27;8.70;;;7.80;;
20150;SDS011;10236;49.638;6.830;2022-08-19T12:20:39;10.98;;;9.88;;
20150;SDS011;10236;49.638;6.830;2022-08-19T12:23:09;9.35;;;8.45;;
20150;SDS011;10236;49.638;6.830;2022-08-19T12:25:43;11.65;;;8.77;;
20150;SDS011;10236;49.638;6.830;2022-08-19T12:28:15;9.90;;;7.97;;
20150;SDS011;10236;49.638;6.830;2022-08-19T12:30:41;9.00;;;8.10;;
20150;SDS011;10236;49.638;6.830;2022-08-19T12:33:09;8.88;;;8.15;;
20150;SDS011;10236;49.638;6.830;2022-08-19T12:35:35;8.73;;;7.85;;
20150;SDS011;10236;49.638;6.830;2022-08-19T12:38:01;9.55;;;8.65;;
20150;SDS011;10236;49.638;6.830;2022-08-19T12:40:27;9.07;;;8.23;;
20150;SDS011;10236;49.638;6.830;2022-08-19T12:42:54;8.02;;;7.32;;
20150;SDS011;10236;49.638;6.830;2022-08-19T12:45:22;7.43;;;6.80;;
20150;SDS011;10236;49.638;6.830;2022-08-19T12:47:48;7.35;;;6.70;;
20150;SDS011;10236;49.638;6.830;2022-08-19T12:50:14;6.50;;;5.70;;
20150;SDS011;10236;49.638;6.830;2022-08-19T12:52:40;7.35;;;6.65;;
20150;SDS011;10236;49.638;6.830;2022-08-19T12:55:10;7.28;;;6.57;;
20150;SDS011;10236;49.638;6.830;2022-08-19T12:57:38;9.40;;;6.95;;
20150;SDS011;10236;49.638;6.830;2022-08-19T13:00:09;7.75;;;6.95;;
20150;SDS011;10236;49.638;6.830;2022-08-19T13:02:38;8.20;;;7.50;;
20150;SDS011;10236;49.638;6.830;2022-08-19T13:05:10;6.95;;;6.32;;
20150;SDS011;10236;49.638;6.830;2022-08-19T13:07:37;9.10;;;8.20;;
20150;SDS011;10236;49.638;6.830;2022-08-19T13:10:04;8.18;;;7.38;;
20150;SDS011;10236;49.638;6.830;2022-08-19T13:12:30;9.48;;;8.27;;
20150;SDS011;10236;49.638;6.830;2022-08-19T13:15:03;9.20;;;8.30;;
20150;SDS011;10236;49.638;6.830;2022-08-19T13:17:30;8.82;;;7.93;;
20150;SDS011;10236;49.638;6.830;2022-08-19T13:19:58;8.57;;;7.65;;
20150;SDS011;10236;49.638;6.830;2022-08-19T13:22:25;10.45;;;7.88;;
20150;SDS011;10236;49.638;6.830;2022-08-19T13:24:51;7.35;;;6.65;;
20150;SDS011;10236;49.638;6.830;2022-08-19T13:27:20;7.57;;;6.88;;
20150;SDS011;10236;49.638;6.830;2022-08-19T13:29:49;7.40;;;6.70;;
20150;SDS011;10236;49.638;6.830;2022-08-19T13:32:34;7.85;;;7.07;;
20150;SDS011;10236;49.638;6.830;2022-08-19T13:35:18;7.65;;;6.20;;
20150;SDS011;10236;49.638;6.830;2022-08-19T13:37:44;7.72;;;6.85;;
20150;SDS011;10236;49.638;6.830;2022-08-19T13:40:17;10.60;;;6.75;;
20150;SDS011;10236;49.638;6.830;2022-08-19T13:42:47;6.63;;;6.03;;
20150;SDS011;10236;49.638;6.830;2022-08-19T13:45:17;6.95;;;6.25;;
20150;SDS011;10236;49.638;6.830;2022-08-19T13:47:48;6.82;;;6.22;;
20150;SDS011;10236;49.638;6.830;2022-08-19T13:50:16;6.78;;;6.18;;
20150;SDS011;10236;49.638;6.830;2022-08-19T13:52:42;8.38;;;7.57;;
20150;SDS011;10236;49.638;6.830;2022-08-19T13:55:09;9.88;;;8.73;;
20150;SDS011;10236;49.638;6.830;2022-08-19T13:57:36;12.55;;;8.80;;
20150;SDS011;10236;49.638;6.830;2022-08-19T14:00:09;7.90;;;7.20;;
20150;SDS011;10236;49.638;6.830;2022-08-19T14:02:36;7.88;;;7.18;;
20150;SDS011;10236;49.638;6.830;2022-08-19T14:05:05;7.45;;;6.57;;
20150;SDS011;10236;49.638;6.830;2022-08-19T14:07:32;6.93;;;6.22;;
20150;SDS011;10236;49.638;6.830;2022-08-19T14:10:00;7.82;;;7.15;;
20150;SDS011;10236;49.638;6.830;2022-08-19T14:12:26;7.10;;;6.40;;
20150;SDS011;10236;49.638;6.830;2022-08-19T14:14:52;6.85;;;5.75;;
20150;SDS011;10236;49.638;6.830;2022-08-19T14:17:18;7.53;;;6.80;;
20150;SDS011;10236;49.638;6.830;2022-08-19T14:19:44;6.88;;;6.18;;
20150;SDS011;10236;49.638;6.830;2022-08-19T14:22:14;7.40;;;5.60;;
20150;SDS011;10236;49.638;6.830;2022-08-19T14:24:40;6.70;;;5.97;;
20150;SDS011;10236;49.638;6.830;2022-08-19T14:27:06;6.00;;;5.40;;
20150;SDS011;10236;49.638;6.830;2022-08-19T14:29:32;5.22;;;4.63;;
20150;SDS011;10236;49.638;6.830;2022-08-19T14:32:02;5.07;;;4.57;;
20150;SDS011;10236;49.638;6.830;2022-08-19T14:34:28;4.97;;;4.47;;
20150;SDS011;10236;49.638;6.830;2022-08-19T14:36:56;7.15;;;5.18;;
20150;SDS011;10236;49.638;6.830;2022-08-19T14:39:22;5.70;;;5.15;;
20150;SDS011;10236;49.638;6.830;2022-08-19T14:41:48;5.55;;;5.05;;
20150;SDS011;10236;49.638;6.830;2022-08-19T14:44:14;6.30;;;5.65;;
20150;SDS011;10236;49.638;6.830;2022-08-19T14:46:40;6.55;;;5.82;;
20150;SDS011;10236;49.638;6.830;2022-08-19T14:49:06;6.07;;;5.57;;
20150;SDS011;10236;49.638;6.830;2022-08-19T14:51:32;8.10;;;7.18;;
20150;SDS011;10236;49.638;6.830;2022-08-19T14:53:58;6.43;;;5.82;;
20150;SDS011;10236;49.638;6.830;2022-08-19T14:56:26;7.68;;;6.85;;
20150;SDS011;10236;49.638;6.830;2022-08-19T14:58:52;7.47;;;6.68;;
20150;SDS011;10236;49.638;6.830;2022-08-19T15:01:19;9.30;;;6.80;;
20150;SDS011;10236;49.638;6.830;2022-08-19T15:03:45;7.97;;;5.93;;
20150;SDS011;10236;49.638;6.830;2022-08-19T15:06:12;7.53;;;6.38;;
20150;SDS011;10236;49.638;6.830;2022-08-19T15:08:39;9.60;;;7.03;;
20150;SDS011;10236;49.638;6.830;2022-08-19T15:11:13;7.82;;;6.95;;
20150;SDS011;10236;49.638;6.830;2022-08-19T15:13:40;7.25;;;6.55;;
20150;SDS011;10236;49.638;6.830;2022-08-19T15:16:07;8.07;;;6.07;;
20150;SDS011;10236;49.638;6.830;2022-08-19T15:18:33;6.63;;;4.60;;
20150;SDS011;10236;49.638;6.830;2022-08-19T15:21:00;13.40;;;12.05;;
20150;SDS011;10236;49.638;6.830;2022-08-19T15:23:26;6.68;;;5.88;;
20150;SDS011;10236;49.638;6.830;2022-08-19T15:25:52;4.13;;;3.65;;
20150;SDS011;10236;49.638;6.830;2022-08-19T15:28:20;8.45;;;7.05;;
20150;SDS011;10236;49.638;6.830;2022-08-19T15:30:46;3.90;;;3.58;;
20150;SDS011;10236;49.638;6.830;2022-08-19T15:33:12;4.05;;;3.20;;
20150;SDS011;10236;49.638;6.830;2022-08-19T15:35:39;3.88;;;3.50;;
20150;SDS011;10236;49.638;6.830;2022-08-19T15:38:06;4.63;;;3.42;;
20150;SDS011;10236;49.638;6.830;2022-08-19T15:40:32;4.50;;;2.60;;
20150;SDS011;10236;49.638;6.830;2022-08-19T15:42:58;3.47;;;2.40;;
20150;SDS011;10236;49.638;6.830;2022-08-19T15:45:24;4.07;;;2.30;;
20150;SDS011;10236;49.638;6.830;2022-08-19T15:47:56;2.70;;;1.95;;
20150;SDS011;10236;49.638;6.830;2022-08-19T15:50:22;2.38;;;1.90;;
20150;SDS011;10236;49.638;6.830;2022-08-19T15:55:14;4.03;;;1.27;;
20150;SDS011;10236;49.638;6.830;2022-08-19T15:57:41;4.65;;;1.05;;
20150;SDS011;10236;49.638;6.830;2022-08-19T16:00:25;4.72;;;1.80;;
20150;SDS011;10236;49.638;6.830;2022-08-19T16:03:12;2.30;;;0.90;;
20150;SDS011;10236;49.638;6.830;2022-08-19T16:05:57;3.60;;;1.48;;
20150;SDS011;10236;49.638;6.830;2022-08-19T16:08:42;1.60;;;1.20;;
20150;SDS011;10236;49.638;6.830;2022-08-19T16:11:09;0.65;;;0.60;;
20150;SDS011;10236;49.638;6.830;2022-08-19T16:13:35;0.80;;;0.70;;
20150;SDS011;10236;49.638;6.830;2022-08-19T16:16:01;0.88;;;0.82;;
20150;SDS011;10236;49.638;6.830;2022-08-19T16:18:27;0.80;;;0.70;;
20150;SDS011;10236;49.638;6.830;2022-08-19T16:20:53;1.08;;;0.60;;
20150;SDS011;10236;49.638;6.830;2022-08-19T16:23:19;2.17;;;0.77;;
20150;SDS011;10236;49.638;6.830;2022-08-19T16:25:46;1.70;;;0.80;;
20150;SDS011;10236;49.638;6.830;2022-08-19T16:28:19;4.40;;;0.93;;
20150;SDS011;10236;49.638;6.830;2022-08-19T16:30:46;0.70;;;0.60;;
20150;SDS011;10236;49.638;6.830;2022-08-19T16:33:12;1.00;;;0.70;;
20150;SDS011;10236;49.638;6.830;2022-08-19T16:35:38;1.80;;;0.60;;